createdAt,value
2022-10-05T00:01:30.178Z,8.90
2022-10-05T00:04:03.332Z,9.40
2022-10-05T00:06:31.972Z,11.07
2022-10-05T00:09:02.028Z,11.35
2022-10-05T00:11:30.561Z,4.38
2022-10-05T00:13:59.898Z,5.97
2022-10-05T00:16:30.922Z,5.05
2022-10-05T00:19:01.134Z,6.50
2022-10-05T00:21:30.900Z,7.28
2022-10-05T00:23:59.791Z,9.48
2022-10-05T00:26:34.374Z,11.10
2022-10-05T00:29:03.578Z,8.60
2022-10-05T00:31:36.433Z,8.68
2022-10-05T00:34:04.865Z,9.20
2022-10-05T00:36:33.684Z,5.75
2022-10-05T00:39:03.053Z,10.88
2022-10-05T00:41:45.701Z,5.07
2022-10-05T00:44:30.300Z,11.93
2022-10-05T00:47:12.765Z,10.23
2022-10-05T00:50:03.819Z,3.33
2022-10-05T00:52:40.674Z,5.75
2022-10-05T00:55:17.209Z,6.15
2022-10-05T00:58:04.087Z,5.30
2022-10-05T01:00:37.830Z,4.55
2022-10-05T01:03:15.163Z,6.03
2022-10-05T01:05:57.895Z,6.40
2022-10-05T01:08:38.663Z,12.00
2022-10-05T01:11:13.020Z,8.30
2022-10-05T01:13:50.362Z,7.65
2022-10-05T01:16:27.821Z,9.00
2022-10-05T01:19:07.312Z,7.95
2022-10-05T01:21:42.978Z,7.53
2022-10-05T01:24:41.280Z,11.50
2022-10-05T01:27:32.822Z,9.18
2022-10-05T01:30:07.267Z,8.93
2022-10-05T01:32:41.751Z,9.57
2022-10-05T01:35:25.334Z,4.97
2022-10-05T01:38:00.931Z,8.80
2022-10-05T01:40:36.691Z,13.02
2022-10-05T01:43:15.093Z,5.70
2022-10-05T01:45:52.974Z,4.63
2022-10-05T01:48:29.412Z,6.10
2022-10-05T01:51:07.264Z,5.22
2022-10-05T01:53:44.746Z,6.47
2022-10-05T01:56:20.399Z,17.38
2022-10-05T01:59:00.569Z,11.80
2022-10-05T02:01:36.504Z,7.00
2022-10-05T02:04:11.156Z,7.78
2022-10-05T02:06:43.889Z,6.43
2022-10-05T02:09:19.438Z,7.78
2022-10-05T02:11:51.269Z,14.65
2022-10-05T02:14:25.503Z,8.57
2022-10-05T02:16:55.731Z,5.65
2022-10-05T02:19:30.867Z,9.05
2022-10-05T02:22:03.497Z,7.28
2022-10-05T02:24:37.075Z,8.02
2022-10-05T02:27:07.960Z,9.27
2022-10-05T02:29:42.674Z,8.20
2022-10-05T02:32:18.389Z,14.35
2022-10-05T02:34:47.005Z,15.88
2022-10-05T02:37:36.874Z,6.15
2022-10-05T02:40:17.336Z,5.70
2022-10-05T02:42:56.105Z,6.72
2022-10-05T02:45:31.947Z,9.70
2022-10-05T02:48:09.571Z,7.22
2022-10-05T02:50:48.113Z,8.23
2022-10-05T02:53:25.683Z,6.63
2022-10-05T02:56:02.367Z,9.10
2022-10-05T02:58:40.146Z,8.80
2022-10-05T03:01:17.185Z,7.47
2022-10-05T03:03:50.212Z,7.40
2022-10-05T03:06:23.522Z,6.18
2022-10-05T03:08:59.283Z,7.55
2022-10-05T03:11:35.641Z,9.63
2022-10-05T03:14:09.571Z,8.27
2022-10-05T03:16:49.625Z,14.02
2022-10-05T03:19:28.711Z,10.98
2022-10-05T03:22:03.129Z,7.38
2022-10-05T03:24:52.838Z,9.80
2022-10-05T03:27:32.775Z,10.25
2022-10-05T03:30:07.209Z,7.32
2022-10-05T03:32:47.631Z,12.48
2022-10-05T03:35:23.607Z,13.25
2022-10-05T03:37:59.776Z,9.07
2022-10-05T03:40:35.773Z,8.70
2022-10-05T03:43:20.388Z,7.35
2022-10-05T03:45:59.370Z,7.10
2022-10-05T03:48:34.722Z,11.95
2022-10-05T03:51:09.179Z,4.75
2022-10-05T03:53:44.601Z,7.45
2022-10-05T03:56:17.612Z,10.80
2022-10-05T03:58:55.666Z,10.90
2022-10-05T04:01:27.205Z,11.02
2022-10-05T04:04:01.195Z,7.88
2022-10-05T04:06:35.075Z,5.22
2022-10-05T04:09:09.178Z,8.45
2022-10-05T04:11:40.606Z,6.57
2022-10-05T04:14:15.676Z,5.05
2022-10-05T04:16:48.441Z,12.77
2022-10-05T04:19:23.925Z,11.55
2022-10-05T04:21:54.533Z,13.27
2022-10-05T04:24:31.306Z,7.60
2022-10-05T04:27:04.247Z,10.15
2022-10-05T04:29:39.633Z,6.18
2022-10-05T04:32:24.915Z,9.18
2022-10-05T04:35:28.530Z,8.80
2022-10-05T04:38:11.067Z,5.88
2022-10-05T04:40:49.717Z,8.18
2022-10-05T04:43:26.269Z,5.40
2022-10-05T04:46:11.393Z,10.57
2022-10-05T04:49:06.258Z,10.77
2022-10-05T04:51:51.989Z,5.50
2022-10-05T04:54:28.712Z,11.30
2022-10-05T04:57:01.747Z,6.22
2022-10-05T05:00:04.531Z,5.82
2022-10-05T05:02:51.883Z,9.10
2022-10-05T05:05:29.176Z,8.05
2022-10-05T05:08:10.112Z,6.30
2022-10-05T05:10:55.092Z,6.35
2022-10-05T05:13:41.889Z,6.13
2022-10-05T05:16:17.593Z,5.03
2022-10-05T05:18:58.613Z,9.05
2022-10-05T05:21:38.059Z,8.57
2022-10-05T05:24:20.991Z,7.63
2022-10-05T05:27:05.178Z,11.75
2022-10-05T05:29:45.021Z,10.00
2022-10-05T05:32:25.793Z,10.05
2022-10-05T05:35:10.206Z,6.88
2022-10-05T05:37:47.131Z,6.32
2022-10-05T05:40:22.246Z,9.05
2022-10-05T05:42:58.949Z,9.43
2022-10-05T05:45:38.433Z,11.10
2022-10-05T05:48:16.537Z,8.57
2022-10-05T05:50:52.833Z,8.77
2022-10-05T05:53:26.303Z,8.63
2022-10-05T05:56:01.150Z,8.57
2022-10-05T05:58:34.174Z,6.00
2022-10-05T06:01:20.228Z,5.80
2022-10-05T06:04:00.598Z,6.60
2022-10-05T06:06:33.074Z,3.72
2022-10-05T06:09:05.290Z,6.63
2022-10-05T06:11:42.213Z,5.68
2022-10-05T06:14:15.976Z,5.28
2022-10-05T06:16:50.088Z,10.15
2022-10-05T06:19:22.512Z,4.80
2022-10-05T06:21:57.608Z,7.55
2022-10-05T06:24:31.738Z,9.05
2022-10-05T06:27:27.615Z,5.80
2022-10-05T06:30:05.600Z,17.73
2022-10-05T06:32:39.426Z,6.53
2022-10-05T06:35:16.980Z,9.48
2022-10-05T06:38:04.265Z,7.47
2022-10-05T06:40:45.077Z,7.55
2022-10-05T06:43:44.370Z,7.70
2022-10-05T06:46:21.296Z,7.38
2022-10-05T06:49:24.649Z,5.07
2022-10-05T06:51:59.281Z,12.45
2022-10-05T06:54:53.358Z,11.02
2022-10-05T06:57:52.652Z,4.85
2022-10-05T07:00:24.964Z,5.13
2022-10-05T07:02:58.835Z,7.72
2022-10-05T07:05:47.005Z,7.15
2022-10-05T07:08:20.377Z,7.18
2022-10-05T07:11:04.755Z,7.00
2022-10-05T07:14:04.921Z,4.32
2022-10-05T07:16:45.517Z,5.05
2022-10-05T07:19:25.402Z,8.35
2022-10-05T07:22:15.736Z,5.95
2022-10-05T07:24:50.257Z,11.23
2022-10-05T07:27:21.609Z,5.13
2022-10-05T07:29:56.355Z,7.63
2022-10-05T07:32:36.129Z,4.85
2022-10-05T07:35:33.145Z,7.18
2022-10-05T07:38:07.471Z,4.78
2022-10-05T07:40:42.639Z,6.15
2022-10-05T07:43:24.491Z,4.45
2022-10-05T07:45:58.494Z,3.17
2022-10-05T07:48:33.474Z,8.95
2022-10-05T07:51:07.433Z,4.55
2022-10-05T07:53:40.256Z,5.07
2022-10-05T07:56:15.920Z,4.35
2022-10-05T07:58:47.787Z,6.00
2022-10-05T08:01:20.788Z,4.43
2022-10-05T08:03:55.438Z,4.82
2022-10-05T08:06:40.004Z,2.80
2022-10-05T08:09:15.808Z,3.78
2022-10-05T08:11:55.003Z,5.53
2022-10-05T08:14:33.746Z,7.93
2022-10-05T08:17:06.288Z,4.38
2022-10-05T08:19:43.009Z,3.78
2022-10-05T08:22:19.492Z,7.75
2022-10-05T08:24:56.925Z,7.85
2022-10-05T08:27:31.857Z,9.38
2022-10-05T08:30:03.270Z,4.38
2022-10-05T08:32:36.007Z,6.25
2022-10-05T08:35:20.859Z,5.97
2022-10-05T08:37:50.310Z,3.05
2022-10-05T08:41:04.853Z,5.00
2022-10-05T08:44:01.982Z,7.63
2022-10-05T08:46:46.441Z,5.47
2022-10-05T08:49:36.445Z,5.72
2022-10-05T08:52:31.269Z,4.65
2022-10-05T08:55:39.771Z,7.00
2022-10-05T08:58:37.799Z,4.03
2022-10-05T09:01:13.103Z,4.13
2022-10-05T09:04:07.028Z,3.13
2022-10-05T09:07:20.362Z,3.20
2022-10-05T09:10:51.900Z,2.85
2022-10-05T09:14:14.052Z,2.80
2022-10-05T09:17:04.373Z,7.90
2022-10-05T09:20:15.750Z,4.22
2022-10-05T09:23:00.180Z,3.47
2022-10-05T09:25:58.385Z,3.25
2022-10-05T09:28:33.522Z,3.55
2022-10-05T09:31:35.839Z,6.75
2022-10-05T09:34:37.853Z,8.48
2022-10-05T09:37:49.242Z,9.13
2022-10-05T09:40:47.612Z,3.42
2022-10-05T09:43:36.236Z,7.97
2022-10-05T09:46:35.719Z,3.50
2022-10-05T09:49:45.345Z,2.85
2022-10-05T09:52:30.236Z,8.65
2022-10-05T09:55:25.627Z,3.25
2022-10-05T09:58:18.290Z,14.05
2022-10-05T10:01:22.164Z,4.07
2022-10-05T10:04:29.848Z,2.50
2022-10-05T10:07:37.562Z,2.55
2022-10-05T10:10:44.884Z,3.47
2022-10-05T10:13:56.458Z,4.20
2022-10-05T10:17:06.905Z,2.30
2022-10-05T10:20:16.904Z,3.17
2022-10-05T10:23:04.280Z,2.70
2022-10-05T10:26:04.516Z,3.92
2022-10-05T10:29:10.374Z,1.98
2022-10-05T10:32:05.785Z,4.70
2022-10-05T10:35:15.642Z,5.82
2022-10-05T10:38:14.788Z,7.70
2022-10-05T10:40:56.265Z,3.60
2022-10-05T10:43:55.813Z,5.85
2022-10-05T10:46:40.464Z,2.08
2022-10-05T10:49:25.895Z,8.48
2022-10-05T10:52:17.903Z,3.03
2022-10-05T10:55:06.305Z,5.57
2022-10-05T10:57:46.696Z,5.20
2022-10-05T11:00:33.568Z,3.65
2022-10-05T11:03:19.628Z,2.38
2022-10-05T11:06:12.891Z,2.20
2022-10-05T11:09:15.325Z,3.83
2022-10-05T11:12:22.023Z,9.45
2022-10-05T11:15:25.790Z,2.03
2022-10-05T11:18:07.744Z,6.35
2022-10-05T11:21:03.676Z,4.60
2022-10-05T11:23:59.408Z,5.78
2022-10-05T11:26:49.796Z,2.63
2022-10-05T11:29:51.460Z,2.78
2022-10-05T11:32:56.579Z,1.33
2022-10-05T11:35:56.754Z,3.35
2022-10-05T11:38:57.236Z,4.50
2022-10-05T11:41:47.991Z,4.18
2022-10-05T11:45:13.989Z,1.27
2022-10-05T11:47:58.455Z,2.13
2022-10-05T11:50:33.115Z,3.92
2022-10-05T11:53:06.979Z,7.78
2022-10-05T11:55:42.554Z,5.07
2022-10-05T11:58:17.368Z,2.65
2022-10-05T12:00:50.264Z,2.70
2022-10-05T12:03:35.684Z,3.45
2022-10-05T12:06:21.413Z,2.67
2022-10-05T12:09:04.340Z,2.85
2022-10-05T12:11:57.694Z,3.97
2022-10-05T12:14:37.118Z,1.52
2022-10-05T12:17:14.231Z,2.42
2022-10-05T12:19:48.071Z,2.88
2022-10-05T12:22:22.537Z,3.40
2022-10-05T12:25:07.869Z,3.78
2022-10-05T12:27:40.543Z,4.40
2022-10-05T12:30:15.922Z,2.50
2022-10-05T12:32:59.360Z,5.80
2022-10-05T12:35:53.759Z,2.50
2022-10-05T12:38:29.523Z,3.83
2022-10-05T12:41:07.246Z,10.98
2022-10-05T12:43:45.578Z,3.47
2022-10-05T12:46:25.312Z,9.55
2022-10-05T12:49:17.248Z,1.92
2022-10-05T12:51:55.845Z,2.58
2022-10-05T12:54:33.885Z,3.97
2022-10-05T12:57:09.055Z,5.05
2022-10-05T12:59:43.389Z,1.92
2022-10-05T13:02:25.470Z,2.78
2022-10-05T13:05:00.105Z,6.10
2022-10-05T13:07:42.502Z,4.70
2022-10-05T13:10:28.201Z,3.22
2022-10-05T13:13:18.535Z,4.22
2022-10-05T13:15:54.609Z,2.53
2022-10-05T13:18:31.324Z,4.57
2022-10-05T13:21:06.973Z,2.83
2022-10-05T13:23:44.874Z,2.33
2022-10-05T13:26:18.773Z,3.10
2022-10-05T13:28:56.314Z,2.35
2022-10-05T13:31:29.630Z,3.22
2022-10-05T13:34:12.755Z,2.72
2022-10-05T13:36:51.665Z,3.13
2022-10-05T13:39:39.148Z,1.85
2022-10-05T13:42:13.972Z,2.05
2022-10-05T13:44:49.830Z,3.63
2022-10-05T13:47:29.155Z,3.05
2022-10-05T13:50:03.418Z,4.18
2022-10-05T13:52:42.344Z,2.92
2022-10-05T13:55:28.432Z,1.50
2022-10-05T13:58:06.095Z,1.90
2022-10-05T14:00:42.678Z,2.10
2022-10-05T14:03:30.554Z,3.47
2022-10-05T14:06:01.441Z,2.50
2022-10-05T14:08:33.254Z,5.00
2022-10-05T14:11:22.931Z,8.45
2022-10-05T14:13:52.184Z,3.08
2022-10-05T14:16:23.570Z,2.13
2022-10-05T14:18:55.799Z,3.05
2022-10-05T14:21:25.960Z,3.65
2022-10-05T14:23:57.253Z,3.78
2022-10-05T14:26:39.017Z,3.67
2022-10-05T14:29:20.150Z,1.50
2022-10-05T14:31:52.482Z,3.03
2022-10-05T14:34:32.955Z,14.95
2022-10-05T14:37:10.060Z,6.32
2022-10-05T14:39:42.636Z,2.88
2022-10-05T14:42:19.284Z,1.98
2022-10-05T14:44:59.913Z,3.20
2022-10-05T14:47:31.878Z,3.90
2022-10-05T14:50:17.023Z,1.60
2022-10-05T14:52:51.770Z,2.30
2022-10-05T14:55:34.366Z,1.98
2022-10-05T14:58:16.782Z,2.38
2022-10-05T15:00:53.448Z,2.50
2022-10-05T15:03:38.134Z,3.85
2022-10-05T15:06:15.945Z,2.30
2022-10-05T15:09:09.138Z,4.60
2022-10-05T15:11:50.132Z,3.72
2022-10-05T15:14:24.002Z,3.22
2022-10-05T15:16:55.424Z,2.90
2022-10-05T15:19:27.391Z,10.52
2022-10-05T15:22:10.410Z,2.35
2022-10-05T15:24:45.468Z,6.95
2022-10-05T15:27:26.213Z,3.28
2022-10-05T15:30:04.533Z,4.25
2022-10-05T15:32:42.580Z,3.17
2022-10-05T15:35:38.129Z,2.72
2022-10-05T15:38:16.334Z,5.80
2022-10-05T15:40:50.216Z,4.32
2022-10-05T15:43:21.920Z,2.80
2022-10-05T15:46:01.747Z,1.80
2022-10-05T15:48:42.423Z,2.53
2022-10-05T15:51:19.084Z,7.00
2022-10-05T15:54:15.942Z,4.57
2022-10-05T15:56:52.097Z,3.25
2022-10-05T15:59:31.652Z,2.20
2022-10-05T16:02:06.621Z,3.55
2022-10-05T16:04:48.672Z,1.80
2022-10-05T16:07:42.636Z,2.40
2022-10-05T16:10:16.859Z,8.20
2022-10-05T16:12:58.032Z,2.80
2022-10-05T16:15:33.341Z,2.28
2022-10-05T16:18:36.308Z,4.47
2022-10-05T16:21:14.110Z,3.00
2022-10-05T16:23:56.039Z,7.85
2022-10-05T16:26:39.162Z,5.97
2022-10-05T16:29:13.025Z,4.32
2022-10-05T16:31:49.137Z,4.97
2022-10-05T16:34:32.548Z,8.95
2022-10-05T16:37:06.319Z,7.65
2022-10-05T16:39:58.955Z,7.45
2022-10-05T16:42:46.390Z,7.47
2022-10-05T16:45:28.588Z,7.40
2022-10-05T16:48:07.742Z,9.85
2022-10-05T16:50:44.577Z,5.10
2022-10-05T16:53:18.936Z,7.35
2022-10-05T16:55:50.967Z,8.07
2022-10-05T16:58:25.564Z,12.15
2022-10-05T17:01:12.996Z,5.18
2022-10-05T17:03:54.080Z,11.07
2022-10-05T17:06:54.096Z,10.18
2022-10-05T17:09:46.882Z,12.32
2022-10-05T17:12:30.273Z,10.10
2022-10-05T17:15:15.851Z,11.00
2022-10-05T17:18:03.532Z,7.80
2022-10-05T17:20:45.571Z,8.57
2022-10-05T17:23:30.289Z,7.30
2022-10-05T17:26:09.349Z,10.02
2022-10-05T17:28:40.606Z,8.50
2022-10-05T17:31:17.826Z,10.95
2022-10-05T17:34:11.383Z,12.18
2022-10-05T17:36:48.102Z,13.38
2022-10-05T17:39:20.131Z,7.43
2022-10-05T17:41:48.905Z,11.63
2022-10-05T17:44:26.295Z,13.07
2022-10-05T17:46:57.029Z,14.15
2022-10-05T17:50:09.526Z,12.10
2022-10-05T17:53:01.244Z,9.88
2022-10-05T17:56:03.312Z,12.95
2022-10-05T17:59:03.164Z,20.52
2022-10-05T18:01:34.494Z,21.50
2022-10-05T18:04:33.708Z,10.77
2022-10-05T18:07:05.275Z,8.70
2022-10-05T18:09:51.406Z,11.40
2022-10-05T18:12:39.653Z,10.60
2022-10-05T18:15:44.129Z,13.93
2022-10-05T18:18:35.651Z,10.85
2022-10-05T18:21:24.893Z,14.10
2022-10-05T18:24:26.999Z,11.88
2022-10-05T18:27:07.273Z,10.90
2022-10-05T18:30:05.588Z,14.05
2022-10-05T18:33:04.234Z,10.48
2022-10-05T18:35:38.222Z,13.75
2022-10-05T18:38:15.169Z,13.48
2022-10-05T18:40:53.996Z,16.85
2022-10-05T18:43:36.008Z,16.40
2022-10-05T18:46:32.896Z,16.65
2022-10-05T18:49:16.301Z,19.48
2022-10-05T18:51:52.057Z,10.65
2022-10-05T18:54:38.382Z,14.52
2022-10-05T18:57:31.549Z,9.63
2022-10-05T19:00:03.394Z,13.90
2022-10-05T19:02:39.089Z,17.23
2022-10-05T19:05:45.821Z,14.00
2022-10-05T19:08:13.331Z,18.10
2022-10-05T19:10:46.096Z,17.73
2022-10-05T19:13:28.929Z,16.45
2022-10-05T19:16:12.342Z,12.20
2022-10-05T19:18:55.691Z,29.00
2022-10-05T19:21:32.051Z,19.52
2022-10-05T19:24:25.151Z,21.98
2022-10-05T19:27:06.859Z,20.17
2022-10-05T19:29:57.451Z,17.02
2022-10-05T19:32:32.833Z,21.88
2022-10-05T19:35:21.162Z,17.52
2022-10-05T19:38:01.791Z,20.63
2022-10-05T19:40:39.699Z,13.27
2022-10-05T19:43:26.381Z,20.25
2022-10-05T19:46:03.430Z,12.20
2022-10-05T19:48:40.567Z,14.98
2022-10-05T19:51:16.738Z,23.13
2022-10-05T19:53:50.075Z,10.80
2022-10-05T19:56:20.577Z,13.55
2022-10-05T19:58:51.933Z,15.80
2022-10-05T20:01:26.257Z,15.20
2022-10-05T20:03:57.538Z,11.25
2022-10-05T20:06:29.632Z,11.70
2022-10-05T20:09:04.578Z,8.68
2022-10-05T20:11:57.560Z,13.27
2022-10-05T20:14:33.774Z,19.80
2022-10-05T20:17:36.771Z,9.85
2022-10-05T20:20:31.084Z,11.02
2022-10-05T20:23:22.715Z,12.82
2022-10-05T20:26:06.355Z,12.38
2022-10-05T20:28:34.939Z,17.58
2022-10-05T20:31:04.055Z,7.90
2022-10-05T20:33:34.411Z,10.70
2022-10-05T20:36:04.074Z,7.10
2022-10-05T20:38:40.017Z,7.35
2022-10-05T20:41:10.116Z,16.10
2022-10-05T20:43:39.515Z,12.68
2022-10-05T20:46:08.604Z,8.20
2022-10-05T20:48:42.056Z,9.75
2022-10-05T20:51:10.545Z,7.93
2022-10-05T20:53:40.720Z,7.97
2022-10-05T20:56:09.098Z,11.27
2022-10-05T20:58:37.768Z,12.02
2022-10-05T21:01:18.406Z,6.45
2022-10-05T21:03:47.602Z,6.13
2022-10-05T21:06:16.248Z,7.63
2022-10-05T21:08:46.408Z,6.55
2022-10-05T21:11:15.346Z,6.28
2022-10-05T21:13:45.041Z,12.38
2022-10-05T21:16:14.213Z,6.10
2022-10-05T21:18:44.413Z,9.35
2022-10-05T21:21:12.788Z,9.00
2022-10-05T21:23:41.534Z,7.95
2022-10-05T21:26:11.857Z,9.30
2022-10-05T21:28:40.372Z,9.57
2022-10-05T21:31:09.710Z,7.45
2022-10-05T21:33:38.200Z,12.70
2022-10-05T21:36:06.728Z,7.60
2022-10-05T21:38:35.384Z,8.77
2022-10-05T21:41:04.130Z,9.63
2022-10-05T21:43:33.986Z,10.93
2022-10-05T21:46:03.226Z,6.55
2022-10-05T21:48:32.703Z,5.63
2022-10-05T21:51:02.419Z,5.82
2022-10-05T21:53:33.797Z,7.28
2022-10-05T21:56:05.350Z,8.23
2022-10-05T21:58:35.548Z,7.25
2022-10-05T22:01:04.295Z,9.13
2022-10-05T22:03:33.067Z,8.15
2022-10-05T22:06:03.699Z,13.30
2022-10-05T22:08:34.214Z,6.50
2022-10-05T22:11:09.914Z,8.70
2022-10-05T22:13:45.358Z,6.43
2022-10-05T22:16:15.134Z,5.47
2022-10-05T22:18:44.489Z,7.95
2022-10-05T22:21:14.326Z,5.65
2022-10-05T22:23:44.143Z,9.68
2022-10-05T22:26:14.326Z,4.60
2022-10-05T22:28:46.788Z,10.25
2022-10-05T22:31:16.733Z,9.48
2022-10-05T22:33:45.156Z,9.48
2022-10-05T22:36:13.636Z,5.53
2022-10-05T22:38:42.262Z,10.27
2022-10-05T22:41:14.938Z,7.55
2022-10-05T22:43:44.881Z,7.63
2022-10-05T22:46:14.621Z,8.48
2022-10-05T22:48:43.286Z,6.68
2022-10-05T22:51:13.194Z,5.93
2022-10-05T22:53:41.643Z,7.25
2022-10-05T22:56:11.575Z,5.72
2022-10-05T22:58:41.235Z,5.97
2022-10-05T23:01:13.298Z,6.90
2022-10-05T23:03:42.784Z,7.32
2022-10-05T23:06:13.426Z,6.10
2022-10-05T23:08:42.908Z,8.07
2022-10-05T23:11:13.619Z,6.63
2022-10-05T23:13:43.312Z,5.70
2022-10-05T23:16:14.697Z,6.93
2022-10-05T23:18:44.428Z,8.20
2022-10-05T23:21:13.401Z,11.48
2022-10-05T23:23:43.702Z,6.50
2022-10-05T23:26:13.225Z,8.77
2022-10-05T23:28:43.193Z,11.65
2022-10-05T23:31:13.891Z,6.22
2022-10-05T23:33:42.485Z,16.50
2022-10-05T23:36:15.361Z,6.00
2022-10-05T23:38:44.121Z,5.43
2022-10-05T23:41:13.192Z,11.02
2022-10-05T23:43:41.916Z,8.07
2022-10-05T23:46:12.638Z,5.93
2022-10-05T23:48:41.284Z,7.45
2022-10-05T23:51:12.095Z,11.40
2022-10-05T23:53:40.863Z,4.18
2022-10-05T23:56:09.233Z,5.50
2022-10-05T23:58:37.536Z,8.05
